Keasbey, New Jersey
Current Conditions -  °F | °C
As of 7:15 PM on Friday 24 Oct 2014 (Local Time) from KLDJ Reporting Station
Scattered Clouds Scattered Clouds  
Wind Chill: 67°   Ceiling: Unl
Heat Index: 67°   Visibility: 10mi
Dew Point: 45°   Wind: 5mph
Humidity: 45%   Direction: 330°NNW
Pressure: 29.82"   Gusts: NA
Location:  40.52°N, 74.31°W
Report Text: KLDJ 242315Z AUTO 33004KT 10SM SCT060 19/07 A2982 RMK AO2 T01920071
Loading
Personal Weather Stations






























Interactive Weather Map
Tropical Storm Tracking
New forecast layout! Learn more

10-Day Weather Forecast

Advertisements
Track Severe Weather on mobile